Terminal Aerodrome Forecast
Issued by NWS Pocatello, ID

Home | Current Version | Previous Version | Text Only | Print | Product List | Glossary On
Versions: 1 2 3 4 5 6 7 8 9 10 11 12 13 14 15 16 17 18 19 20
000
FTUS45 KPIH 261126
TAFIDA
TAF
KIDA 261126Z 2612/2712 VRB05KT P6SM SCT025 SCT080
     FM261800 22011KT P6SM SCT060
     FM262100 22012KT P6SM VCTS BKN060CB
     FM270400 19007KT P6SM SCT060=

USA.gov is the U.S. government's official web portal to all federal, state and local government web resources and services.